WEATHER

Warnervale Skycam

North West View

North West View

South West View

South West View

Mean Sea Level Pressure Analysis (Synoptic Chart)

Synoptic Chart

  • YSSY TAF

    TAF YSSY 211126Z 2112/2218 29008KT CAVOK FM220400 02010KT CAVOK FM221300 29008KT CAVOK RMK T 11 09 07 07 Q 1023 1023 1023 1024

  • YSSY METAR

    TTF METAR YSSY 211300Z 24009KT CAVOK 10/01 Q1024 RMK RF00.0/000.2 NOSIG

Sydney Rainfall Radar

128 km Sydney Radar

Sydney Rainfall Radar

 

512 km Sydney Radar

Sydney Rainfall Radar 512km

 

Rainfall radar and satellite images obtained from the Bureau of Meteorology. All information provided on this page is for general information and should NOT be used for flight planning.